Terminal Aerodrome Forecast
Issued by NWS

Home | Current Version | Previous Version | Text Only | Print | Product List | Glossary On
Versions: 1 2 3 4 5 6 7 8 9 10 11 12 13 14
000
FTUS45 KABQ 281126
TAFAEG
TAF
KAEG 281126Z 2812/2912 35005KT P6SM SCT120
     FM282000 32008KT P6SM BKN090
     FM290800 13008KT P6SM BKN080=

USA.gov is the U.S. government's official web portal to all federal, state and local government web resources and services.